sensor_id;sensor_type;location;lat;lon;timestamp;P1;durP1;ratioP1;P2;durP2;ratioP2
651;SDS011;310;48.490;9.200;2023-06-22T00:01:52;94.40;;;3.20;;
651;SDS011;310;48.490;9.200;2023-06-22T00:04:17;91.77;;;3.27;;
651;SDS011;310;48.490;9.200;2023-06-22T00:06:43;90.60;;;2.43;;
651;SDS011;310;48.490;9.200;2023-06-22T00:09:08;91.67;;;2.67;;
651;SDS011;310;48.490;9.200;2023-06-22T00:11:35;91.27;;;2.70;;
651;SDS011;310;48.490;9.200;2023-06-22T00:14:01;90.63;;;2.43;;
651;SDS011;310;48.490;9.200;2023-06-22T00:16:28;91.10;;;2.77;;
651;SDS011;310;48.490;9.200;2023-06-22T00:18:53;91.77;;;2.40;;
651;SDS011;310;48.490;9.200;2023-06-22T00:21:19;91.80;;;2.90;;
651;SDS011;310;48.490;9.200;2023-06-22T00:23:47;94.47;;;3.63;;
651;SDS011;310;48.490;9.200;2023-06-22T00:26:13;91.40;;;2.63;;
651;SDS011;310;48.490;9.200;2023-06-22T00:28:38;92.10;;;2.77;;
651;SDS011;310;48.490;9.200;2023-06-22T00:31:04;92.30;;;2.87;;
651;SDS011;310;48.490;9.200;2023-06-22T00:33:30;92.67;;;3.00;;
651;SDS011;310;48.490;9.200;2023-06-22T00:35:56;91.37;;;2.57;;
651;SDS011;310;48.490;9.200;2023-06-22T00:38:22;90.70;;;2.30;;
651;SDS011;310;48.490;9.200;2023-06-22T00:40:47;96.80;;;2.53;;
651;SDS011;310;48.490;9.200;2023-06-22T00:43:13;91.47;;;2.40;;
651;SDS011;310;48.490;9.200;2023-06-22T00:45:38;91.47;;;2.43;;
651;SDS011;310;48.490;9.200;2023-06-22T00:48:04;91.70;;;2.53;;
651;SDS011;310;48.490;9.200;2023-06-22T00:50:31;91.53;;;2.40;;
651;SDS011;310;48.490;9.200;2023-06-22T00:52:59;92.00;;;2.57;;
651;SDS011;310;48.490;9.200;2023-06-22T00:55:32;91.90;;;2.50;;
651;SDS011;310;48.490;9.200;2023-06-22T00:58:16;92.07;;;2.73;;
651;SDS011;310;48.490;9.200;2023-06-22T01:00:46;94.73;;;2.97;;
651;SDS011;310;48.490;9.200;2023-06-22T01:03:13;92.50;;;2.50;;
651;SDS011;310;48.490;9.200;2023-06-22T01:05:38;91.87;;;2.43;;
651;SDS011;310;48.490;9.200;2023-06-22T01:08:23;91.90;;;2.37;;
651;SDS011;310;48.490;9.200;2023-06-22T01:11:01;92.27;;;2.50;;
651;SDS011;310;48.490;9.200;2023-06-22T01:13:45;92.77;;;2.90;;
651;SDS011;310;48.490;9.200;2023-06-22T01:16:27;92.40;;;2.53;;
651;SDS011;310;48.490;9.200;2023-06-22T01:18:55;92.37;;;2.40;;
651;SDS011;310;48.490;9.200;2023-06-22T01:21:25;92.80;;;2.77;;
651;SDS011;310;48.490;9.200;2023-06-22T01:28:59;92.80;;;2.40;;
651;SDS011;310;48.490;9.200;2023-06-22T01:31:27;92.50;;;2.50;;
651;SDS011;310;48.490;9.200;2023-06-22T01:34:01;93.47;;;2.40;;
651;SDS011;310;48.490;9.200;2023-06-22T01:36:29;92.47;;;2.40;;
651;SDS011;310;48.490;9.200;2023-06-22T01:38:57;92.60;;;2.63;;
651;SDS011;310;48.490;9.200;2023-06-22T01:41:27;92.80;;;2.50;;
651;SDS011;310;48.490;9.200;2023-06-22T01:43:54;92.60;;;2.70;;
651;SDS011;310;48.490;9.200;2023-06-22T01:46:21;92.43;;;2.30;;
651;SDS011;310;48.490;9.200;2023-06-22T01:48:47;93.20;;;3.03;;
651;SDS011;310;48.490;9.200;2023-06-22T01:51:13;93.47;;;2.73;;
651;SDS011;310;48.490;9.200;2023-06-22T01:53:39;93.07;;;2.70;;
651;SDS011;310;48.490;9.200;2023-06-22T01:56:05;93.57;;;3.10;;
651;SDS011;310;48.490;9.200;2023-06-22T01:58:31;93.30;;;2.63;;
651;SDS011;310;48.490;9.200;2023-06-22T02:00:58;93.13;;;2.57;;
651;SDS011;310;48.490;9.200;2023-06-22T02:03:34;92.57;;;2.27;;
651;SDS011;310;48.490;9.200;2023-06-22T02:06:25;94.77;;;3.57;;
651;SDS011;310;48.490;9.200;2023-06-22T02:09:01;93.20;;;2.77;;
651;SDS011;310;48.490;9.200;2023-06-22T02:11:30;93.43;;;2.83;;
651;SDS011;310;48.490;9.200;2023-06-22T02:13:58;92.57;;;2.23;;
651;SDS011;310;48.490;9.200;2023-06-22T02:16:24;93.00;;;2.40;;
651;SDS011;310;48.490;9.200;2023-06-22T02:18:54;92.50;;;2.13;;
651;SDS011;310;48.490;9.200;2023-06-22T02:21:26;92.60;;;2.40;;
651;SDS011;310;48.490;9.200;2023-06-22T02:23:52;92.93;;;2.57;;
651;SDS011;310;48.490;9.200;2023-06-22T02:26:17;93.87;;;2.97;;
651;SDS011;310;48.490;9.200;2023-06-22T02:28:43;94.07;;;2.87;;
651;SDS011;310;48.490;9.200;2023-06-22T02:31:09;93.13;;;2.30;;
651;SDS011;310;48.490;9.200;2023-06-22T02:33:35;93.30;;;2.40;;
651;SDS011;310;48.490;9.200;2023-06-22T02:36:00;93.90;;;3.07;;
651;SDS011;310;48.490;9.200;2023-06-22T02:38:30;93.20;;;2.60;;
651;SDS011;310;48.490;9.200;2023-06-22T02:40:59;94.93;;;2.50;;
651;SDS011;310;48.490;9.200;2023-06-22T02:43:25;95.43;;;2.97;;
651;SDS011;310;48.490;9.200;2023-06-22T02:45:51;94.00;;;2.90;;
651;SDS011;310;48.490;9.200;2023-06-22T02:48:16;93.47;;;2.50;;
651;SDS011;310;48.490;9.200;2023-06-22T02:50:42;93.20;;;2.27;;
651;SDS011;310;48.490;9.200;2023-06-22T02:53:08;93.77;;;2.67;;
651;SDS011;310;48.490;9.200;2023-06-22T02:55:33;93.20;;;2.40;;
651;SDS011;310;48.490;9.200;2023-06-22T02:57:59;94.00;;;2.70;;
651;SDS011;310;48.490;9.200;2023-06-22T03:00:25;93.87;;;2.57;;
651;SDS011;310;48.490;9.200;2023-06-22T03:02:55;94.07;;;2.93;;
651;SDS011;310;48.490;9.200;2023-06-22T03:05:22;93.67;;;2.50;;
651;SDS011;310;48.490;9.200;2023-06-22T03:07:48;93.90;;;2.63;;
651;SDS011;310;48.490;9.200;2023-06-22T03:10:14;93.83;;;2.77;;
651;SDS011;310;48.490;9.200;2023-06-22T03:12:40;93.90;;;2.50;;
651;SDS011;310;48.490;9.200;2023-06-22T03:15:08;95.67;;;3.10;;
651;SDS011;310;48.490;9.200;2023-06-22T03:17:35;93.47;;;2.50;;
651;SDS011;310;48.490;9.200;2023-06-22T03:20:02;95.60;;;2.60;;
651;SDS011;310;48.490;9.200;2023-06-22T03:22:34;95.73;;;2.93;;
651;SDS011;310;48.490;9.200;2023-06-22T03:25:01;93.97;;;2.53;;
651;SDS011;310;48.490;9.200;2023-06-22T03:27:26;93.80;;;2.37;;
651;SDS011;310;48.490;9.200;2023-06-22T03:29:52;93.53;;;2.27;;
651;SDS011;310;48.490;9.200;2023-06-22T03:32:18;93.97;;;2.40;;
651;SDS011;310;48.490;9.200;2023-06-22T03:34:43;94.20;;;2.63;;
651;SDS011;310;48.490;9.200;2023-06-22T03:37:12;94.80;;;2.97;;
651;SDS011;310;48.490;9.200;2023-06-22T03:39:41;94.90;;;3.17;;
651;SDS011;310;48.490;9.200;2023-06-22T03:42:07;94.30;;;2.50;;
651;SDS011;310;48.490;9.200;2023-06-22T03:44:33;94.10;;;2.70;;
651;SDS011;310;48.490;9.200;2023-06-22T03:47:01;94.07;;;2.60;;
651;SDS011;310;48.490;9.200;2023-06-22T03:49:27;93.97;;;2.43;;
651;SDS011;310;48.490;9.200;2023-06-22T03:51:52;93.87;;;2.40;;
651;SDS011;310;48.490;9.200;2023-06-22T03:54:18;94.20;;;2.60;;
651;SDS011;310;48.490;9.200;2023-06-22T03:56:43;95.30;;;2.87;;
651;SDS011;310;48.490;9.200;2023-06-22T03:59:09;94.60;;;2.73;;
651;SDS011;310;48.490;9.200;2023-06-22T04:01:35;95.87;;;2.70;;
651;SDS011;310;48.490;9.200;2023-06-22T04:04:01;94.97;;;2.80;;
651;SDS011;310;48.490;9.200;2023-06-22T04:06:27;95.40;;;2.80;;
651;SDS011;310;48.490;9.200;2023-06-22T04:08:52;93.90;;;2.30;;
651;SDS011;310;48.490;9.200;2023-06-22T04:11:18;95.60;;;3.00;;
651;SDS011;310;48.490;9.200;2023-06-22T04:13:44;94.67;;;2.97;;
651;SDS011;310;48.490;9.200;2023-06-22T04:16:10;95.23;;;3.00;;
651;SDS011;310;48.490;9.200;2023-06-22T04:18:36;94.10;;;2.43;;
651;SDS011;310;48.490;9.200;2023-06-22T04:21:01;94.07;;;2.33;;
651;SDS011;310;48.490;9.200;2023-06-22T04:23:27;94.60;;;2.90;;
651;SDS011;310;48.490;9.200;2023-06-22T04:25:53;94.20;;;2.43;;
651;SDS011;310;48.490;9.200;2023-06-22T04:28:21;94.20;;;2.53;;
651;SDS011;310;48.490;9.200;2023-06-22T04:30:47;94.23;;;2.40;;
651;SDS011;310;48.490;9.200;2023-06-22T04:33:13;96.93;;;2.67;;
651;SDS011;310;48.490;9.200;2023-06-22T04:35:44;94.50;;;2.67;;
651;SDS011;310;48.490;9.200;2023-06-22T04:38:11;94.43;;;2.60;;
651;SDS011;310;48.490;9.200;2023-06-22T04:40:38;94.60;;;2.67;;
651;SDS011;310;48.490;9.200;2023-06-22T04:43:04;96.67;;;3.30;;
651;SDS011;310;48.490;9.200;2023-06-22T04:45:31;94.80;;;2.80;;
651;SDS011;310;48.490;9.200;2023-06-22T04:48:02;94.07;;;2.40;;
651;SDS011;310;48.490;9.200;2023-06-22T04:50:28;94.43;;;2.67;;
651;SDS011;310;48.490;9.200;2023-06-22T04:52:54;94.33;;;2.27;;
651;SDS011;310;48.490;9.200;2023-06-22T04:55:20;94.60;;;2.60;;
651;SDS011;310;48.490;9.200;2023-06-22T04:57:45;94.97;;;2.80;;
651;SDS011;310;48.490;9.200;2023-06-22T05:00:15;95.20;;;2.50;;
651;SDS011;310;48.490;9.200;2023-06-22T05:02:42;94.50;;;3.00;;
651;SDS011;310;48.490;9.200;2023-06-22T05:05:10;96.47;;;2.93;;
651;SDS011;310;48.490;9.200;2023-06-22T05:07:39;96.00;;;3.10;;
651;SDS011;310;48.490;9.200;2023-06-22T05:10:09;94.50;;;2.50;;
651;SDS011;310;48.490;9.200;2023-06-22T05:12:36;94.57;;;2.23;;
651;SDS011;310;48.490;9.200;2023-06-22T05:15:02;94.60;;;2.90;;
651;SDS011;310;48.490;9.200;2023-06-22T05:17:28;94.27;;;2.57;;
651;SDS011;310;48.490;9.200;2023-06-22T05:19:54;97.87;;;3.63;;
651;SDS011;310;48.490;9.200;2023-06-22T05:22:20;94.73;;;2.70;;
651;SDS011;310;48.490;9.200;2023-06-22T05:24:45;94.70;;;3.00;;
651;SDS011;310;48.490;9.200;2023-06-22T05:27:11;94.67;;;2.70;;
651;SDS011;310;48.490;9.200;2023-06-22T05:29:37;93.97;;;2.30;;
651;SDS011;310;48.490;9.200;2023-06-22T05:32:03;98.00;;;3.23;;
651;SDS011;310;48.490;9.200;2023-06-22T05:34:29;95.30;;;2.90;;
651;SDS011;310;48.490;9.200;2023-06-22T05:36:54;94.70;;;2.80;;
651;SDS011;310;48.490;9.200;2023-06-22T05:39:20;95.10;;;2.90;;
651;SDS011;310;48.490;9.200;2023-06-22T05:41:46;94.40;;;2.57;;
651;SDS011;310;48.490;9.200;2023-06-22T05:44:12;94.40;;;2.70;;
651;SDS011;310;48.490;9.200;2023-06-22T05:46:42;94.97;;;3.33;;
651;SDS011;310;48.490;9.200;2023-06-22T05:49:13;94.20;;;2.60;;
651;SDS011;310;48.490;9.200;2023-06-22T05:51:39;93.97;;;2.50;;
651;SDS011;310;48.490;9.200;2023-06-22T05:54:05;98.00;;;3.00;;
651;SDS011;310;48.490;9.200;2023-06-22T05:56:30;94.57;;;2.70;;
651;SDS011;310;48.490;9.200;2023-06-22T05:58:56;94.07;;;2.60;;
651;SDS011;310;48.490;9.200;2023-06-22T06:01:21;94.50;;;3.00;;
651;SDS011;310;48.490;9.200;2023-06-22T06:03:47;94.40;;;2.67;;
651;SDS011;310;48.490;9.200;2023-06-22T06:06:14;95.07;;;2.80;;
651;SDS011;310;48.490;9.200;2023-06-22T06:08:40;95.93;;;3.07;;
651;SDS011;310;48.490;9.200;2023-06-22T06:11:06;93.70;;;2.30;;
651;SDS011;310;48.490;9.200;2023-06-22T06:13:32;95.20;;;3.20;;
651;SDS011;310;48.490;9.200;2023-06-22T06:15:57;96.67;;;3.20;;
651;SDS011;310;48.490;9.200;2023-06-22T06:18:24;94.47;;;2.70;;
651;SDS011;310;48.490;9.200;2023-06-22T06:20:50;95.13;;;2.67;;
651;SDS011;310;48.490;9.200;2023-06-22T06:23:15;93.90;;;2.57;;
651;SDS011;310;48.490;9.200;2023-06-22T06:25:41;95.17;;;3.53;;
651;SDS011;310;48.490;9.200;2023-06-22T06:28:06;94.80;;;3.37;;
651;SDS011;310;48.490;9.200;2023-06-22T06:30:32;94.97;;;2.90;;
651;SDS011;310;48.490;9.200;2023-06-22T06:32:58;97.07;;;3.03;;
651;SDS011;310;48.490;9.200;2023-06-22T06:35:23;94.37;;;2.87;;
651;SDS011;310;48.490;9.200;2023-06-22T06:37:49;94.10;;;2.97;;
651;SDS011;310;48.490;9.200;2023-06-22T06:40:16;95.50;;;3.27;;
651;SDS011;310;48.490;9.200;2023-06-22T06:42:43;95.57;;;2.97;;
651;SDS011;310;48.490;9.200;2023-06-22T06:45:10;93.87;;;2.93;;
651;SDS011;310;48.490;9.200;2023-06-22T06:47:37;94.10;;;3.03;;
651;SDS011;310;48.490;9.200;2023-06-22T06:50:04;94.17;;;2.90;;
651;SDS011;310;48.490;9.200;2023-06-22T06:52:30;93.87;;;2.60;;
651;SDS011;310;48.490;9.200;2023-06-22T06:54:56;94.07;;;2.67;;
651;SDS011;310;48.490;9.200;2023-06-22T06:57:21;93.20;;;2.60;;
651;SDS011;310;48.490;9.200;2023-06-22T06:59:47;93.37;;;3.10;;
651;SDS011;310;48.490;9.200;2023-06-22T07:02:14;93.40;;;2.80;;
651;SDS011;310;48.490;9.200;2023-06-22T07:04:41;92.97;;;2.73;;
651;SDS011;310;48.490;9.200;2023-06-22T07:07:06;98.07;;;3.63;;
651;SDS011;310;48.490;9.200;2023-06-22T07:09:32;97.17;;;3.20;;
651;SDS011;310;48.490;9.200;2023-06-22T07:11:58;93.47;;;2.83;;
651;SDS011;310;48.490;9.200;2023-06-22T07:14:23;92.37;;;2.50;;
651;SDS011;310;48.490;9.200;2023-06-22T07:16:49;92.77;;;2.67;;
651;SDS011;310;48.490;9.200;2023-06-22T07:19:14;92.17;;;2.30;;
651;SDS011;310;48.490;9.200;2023-06-22T07:21:40;93.27;;;2.67;;
651;SDS011;310;48.490;9.200;2023-06-22T07:24:06;92.67;;;2.60;;
651;SDS011;310;48.490;9.200;2023-06-22T07:26:32;94.23;;;3.57;;
651;SDS011;310;48.490;9.200;2023-06-22T07:28:58;92.20;;;2.47;;
651;SDS011;310;48.490;9.200;2023-06-22T07:31:24;92.67;;;2.87;;
651;SDS011;310;48.490;9.200;2023-06-22T07:33:50;93.20;;;2.90;;
651;SDS011;310;48.490;9.200;2023-06-22T07:36:16;95.00;;;2.93;;
651;SDS011;310;48.490;9.200;2023-06-22T07:38:42;93.20;;;2.90;;
651;SDS011;310;48.490;9.200;2023-06-22T07:41:08;92.80;;;2.97;;
651;SDS011;310;48.490;9.200;2023-06-22T07:43:33;95.20;;;2.90;;
651;SDS011;310;48.490;9.200;2023-06-22T07:46:01;92.10;;;2.60;;
651;SDS011;310;48.490;9.200;2023-06-22T07:48:28;92.57;;;2.60;;
651;SDS011;310;48.490;9.200;2023-06-22T07:50:54;92.77;;;2.60;;
651;SDS011;310;48.490;9.200;2023-06-22T07:53:20;91.90;;;2.43;;
651;SDS011;310;48.490;9.200;2023-06-22T07:55:46;92.17;;;2.90;;
651;SDS011;310;48.490;9.200;2023-06-22T07:58:12;93.80;;;2.67;;
651;SDS011;310;48.490;9.200;2023-06-22T08:00:37;93.77;;;2.80;;
651;SDS011;310;48.490;9.200;2023-06-22T08:03:03;91.77;;;2.50;;
651;SDS011;310;48.490;9.200;2023-06-22T08:05:30;92.77;;;2.53;;
651;SDS011;310;48.490;9.200;2023-06-22T08:07:56;91.10;;;2.17;;
651;SDS011;310;48.490;9.200;2023-06-22T08:10:21;91.63;;;2.57;;
651;SDS011;310;48.490;9.200;2023-06-22T08:12:47;91.00;;;2.47;;
651;SDS011;310;48.490;9.200;2023-06-22T08:15:13;91.67;;;3.17;;
651;SDS011;310;48.490;9.200;2023-06-22T08:17:38;91.17;;;2.57;;
651;SDS011;310;48.490;9.200;2023-06-22T08:20:04;91.10;;;2.50;;
651;SDS011;310;48.490;9.200;2023-06-22T08:22:35;91.10;;;2.70;;
651;SDS011;310;48.490;9.200;2023-06-22T08:25:01;91.37;;;2.87;;
651;SDS011;310;48.490;9.200;2023-06-22T08:27:28;91.17;;;2.70;;
651;SDS011;310;48.490;9.200;2023-06-22T08:29:56;93.17;;;2.83;;
651;SDS011;310;48.490;9.200;2023-06-22T08:32:23;91.17;;;2.70;;
651;SDS011;310;48.490;9.200;2023-06-22T08:34:51;91.20;;;2.83;;
651;SDS011;310;48.490;9.200;2023-06-22T08:37:17;91.23;;;2.90;;
651;SDS011;310;48.490;9.200;2023-06-22T08:39:43;90.07;;;2.50;;
651;SDS011;310;48.490;9.200;2023-06-22T08:42:09;90.97;;;2.50;;
651;SDS011;310;48.490;9.200;2023-06-22T08:44:34;90.43;;;2.43;;
651;SDS011;310;48.490;9.200;2023-06-22T08:47:00;90.57;;;2.60;;
651;SDS011;310;48.490;9.200;2023-06-22T08:49:25;90.50;;;2.70;;
651;SDS011;310;48.490;9.200;2023-06-22T08:51:51;90.23;;;2.60;;
651;SDS011;310;48.490;9.200;2023-06-22T08:54:18;90.37;;;2.50;;
651;SDS011;310;48.490;9.200;2023-06-22T08:56:44;89.47;;;2.47;;
651;SDS011;310;48.490;9.200;2023-06-22T08:59:10;90.23;;;2.90;;
651;SDS011;310;48.490;9.200;2023-06-22T09:01:35;89.70;;;2.40;;
651;SDS011;310;48.490;9.200;2023-06-22T09:04:01;89.30;;;2.37;;
651;SDS011;310;48.490;9.200;2023-06-22T09:06:26;89.17;;;2.40;;
651;SDS011;310;48.490;9.200;2023-06-22T09:08:52;89.10;;;2.27;;
651;SDS011;310;48.490;9.200;2023-06-22T09:11:18;91.77;;;2.73;;
651;SDS011;310;48.490;9.200;2023-06-22T09:13:43;89.87;;;2.73;;
651;SDS011;310;48.490;9.200;2023-06-22T09:16:09;89.97;;;2.70;;
651;SDS011;310;48.490;9.200;2023-06-22T09:18:35;89.57;;;2.60;;
651;SDS011;310;48.490;9.200;2023-06-22T09:21:01;89.37;;;2.47;;
651;SDS011;310;48.490;9.200;2023-06-22T09:23:27;89.27;;;2.57;;
651;SDS011;310;48.490;9.200;2023-06-22T09:25:52;90.40;;;2.90;;
651;SDS011;310;48.490;9.200;2023-06-22T09:28:18;90.10;;;2.60;;
651;SDS011;310;48.490;9.200;2023-06-22T09:30:43;89.43;;;2.53;;
651;SDS011;310;48.490;9.200;2023-06-22T09:33:09;89.77;;;2.70;;
651;SDS011;310;48.490;9.200;2023-06-22T09:35:35;88.90;;;2.53;;
651;SDS011;310;48.490;9.200;2023-06-22T09:38:01;89.83;;;3.10;;
651;SDS011;310;48.490;9.200;2023-06-22T09:40:26;89.57;;;2.60;;
651;SDS011;310;48.490;9.200;2023-06-22T09:42:52;88.97;;;2.50;;
651;SDS011;310;48.490;9.200;2023-06-22T09:45:17;89.20;;;2.50;;
651;SDS011;310;48.490;9.200;2023-06-22T09:47:43;88.87;;;2.40;;
651;SDS011;310;48.490;9.200;2023-06-22T09:50:09;92.00;;;2.97;;
651;SDS011;310;48.490;9.200;2023-06-22T09:52:34;90.17;;;3.20;;
651;SDS011;310;48.490;9.200;2023-06-22T09:55:00;88.50;;;2.40;;
651;SDS011;310;48.490;9.200;2023-06-22T09:57:26;88.80;;;2.33;;
651;SDS011;310;48.490;9.200;2023-06-22T09:59:51;91.80;;;2.80;;
651;SDS011;310;48.490;9.200;2023-06-22T10:02:17;88.50;;;2.50;;
651;SDS011;310;48.490;9.200;2023-06-22T10:04:42;88.90;;;2.40;;
651;SDS011;310;48.490;9.200;2023-06-22T10:07:08;88.47;;;2.47;;
651;SDS011;310;48.490;9.200;2023-06-22T10:09:33;88.70;;;2.60;;
651;SDS011;310;48.490;9.200;2023-06-22T10:11:59;92.20;;;2.67;;
651;SDS011;310;48.490;9.200;2023-06-22T10:14:25;88.23;;;2.23;;
651;SDS011;310;48.490;9.200;2023-06-22T10:16:52;88.50;;;2.30;;
651;SDS011;310;48.490;9.200;2023-06-22T10:19:18;87.73;;;2.37;;
651;SDS011;310;48.490;9.200;2023-06-22T10:21:43;88.20;;;2.40;;
651;SDS011;310;48.490;9.200;2023-06-22T10:24:09;87.57;;;2.33;;
651;SDS011;310;48.490;9.200;2023-06-22T10:26:35;87.40;;;2.17;;
651;SDS011;310;48.490;9.200;2023-06-22T10:29:02;87.47;;;2.33;;
651;SDS011;310;48.490;9.200;2023-06-22T10:31:28;89.30;;;3.13;;
651;SDS011;310;48.490;9.200;2023-06-22T10:33:54;88.97;;;2.27;;
651;SDS011;310;48.490;9.200;2023-06-22T10:36:20;94.63;;;2.37;;
651;SDS011;310;48.490;9.200;2023-06-22T10:38:47;87.77;;;2.40;;
651;SDS011;310;48.490;9.200;2023-06-22T10:41:13;88.70;;;2.93;;
651;SDS011;310;48.490;9.200;2023-06-22T10:43:39;87.17;;;2.17;;
651;SDS011;310;48.490;9.200;2023-06-22T10:46:04;88.27;;;2.57;;
651;SDS011;310;48.490;9.200;2023-06-22T10:48:30;87.00;;;2.20;;
651;SDS011;310;48.490;9.200;2023-06-22T10:50:55;92.30;;;2.67;;
651;SDS011;310;48.490;9.200;2023-06-22T10:53:21;87.13;;;2.30;;
651;SDS011;310;48.490;9.200;2023-06-22T10:55:47;86.77;;;2.20;;
651;SDS011;310;48.490;9.200;2023-06-22T10:58:12;86.87;;;2.20;;
651;SDS011;310;48.490;9.200;2023-06-22T11:00:38;93.90;;;3.03;;
651;SDS011;310;48.490;9.200;2023-06-22T11:03:04;88.93;;;2.57;;
651;SDS011;310;48.490;9.200;2023-06-22T11:05:29;90.90;;;3.00;;
651;SDS011;310;48.490;9.200;2023-06-22T11:07:55;87.27;;;2.50;;
651;SDS011;310;48.490;9.200;2023-06-22T11:10:20;86.60;;;2.60;;
651;SDS011;310;48.490;9.200;2023-06-22T11:12:46;87.07;;;2.60;;
651;SDS011;310;48.490;9.200;2023-06-22T11:15:11;88.00;;;2.80;;
651;SDS011;310;48.490;9.200;2023-06-22T11:17:37;87.40;;;2.67;;
651;SDS011;310;48.490;9.200;2023-06-22T11:20:03;86.30;;;2.40;;
651;SDS011;310;48.490;9.200;2023-06-22T11:22:36;86.27;;;2.20;;
651;SDS011;310;48.490;9.200;2023-06-22T11:25:02;86.07;;;2.27;;
651;SDS011;310;48.490;9.200;2023-06-22T11:27:28;85.97;;;2.30;;
651;SDS011;310;48.490;9.200;2023-06-22T11:29:54;87.07;;;2.67;;
651;SDS011;310;48.490;9.200;2023-06-22T11:32:20;86.30;;;2.40;;
651;SDS011;310;48.490;9.200;2023-06-22T11:34:45;85.63;;;2.20;;
651;SDS011;310;48.490;9.200;2023-06-22T11:37:11;87.00;;;2.40;;
651;SDS011;310;48.490;9.200;2023-06-22T11:39:36;87.50;;;2.50;;
651;SDS011;310;48.490;9.200;2023-06-22T11:42:02;86.67;;;2.30;;
651;SDS011;310;48.490;9.200;2023-06-22T11:44:27;86.70;;;2.60;;
651;SDS011;310;48.490;9.200;2023-06-22T11:46:53;86.57;;;2.67;;
651;SDS011;310;48.490;9.200;2023-06-22T11:49:18;86.27;;;2.30;;
651;SDS011;310;48.490;9.200;2023-06-22T11:51:44;85.90;;;2.23;;
651;SDS011;310;48.490;9.200;2023-06-22T11:54:10;85.87;;;2.00;;
651;SDS011;310;48.490;9.200;2023-06-22T11:56:35;87.10;;;2.57;;
651;SDS011;310;48.490;9.200;2023-06-22T11:59:01;87.77;;;2.30;;
651;SDS011;310;48.490;9.200;2023-06-22T12:01:26;85.97;;;2.10;;
651;SDS011;310;48.490;9.200;2023-06-22T12:03:52;87.20;;;2.77;;
651;SDS011;310;48.490;9.200;2023-06-22T12:06:17;88.80;;;2.87;;
651;SDS011;310;48.490;9.200;2023-06-22T12:08:43;85.57;;;2.07;;
651;SDS011;310;48.490;9.200;2023-06-22T12:11:08;85.90;;;2.30;;
651;SDS011;310;48.490;9.200;2023-06-22T12:13:34;85.77;;;2.10;;
651;SDS011;310;48.490;9.200;2023-06-22T12:16:00;86.73;;;2.50;;
651;SDS011;310;48.490;9.200;2023-06-22T12:18:25;86.47;;;2.67;;
651;SDS011;310;48.490;9.200;2023-06-22T12:20:51;86.17;;;2.40;;
651;SDS011;310;48.490;9.200;2023-06-22T12:23:16;90.90;;;2.50;;
651;SDS011;310;48.490;9.200;2023-06-22T12:25:42;86.10;;;2.50;;
651;SDS011;310;48.490;9.200;2023-06-22T12:28:09;85.47;;;2.13;;
651;SDS011;310;48.490;9.200;2023-06-22T12:30:35;91.23;;;2.47;;
651;SDS011;310;48.490;9.200;2023-06-22T12:33:00;86.07;;;2.40;;
651;SDS011;310;48.490;9.200;2023-06-22T12:35:26;86.00;;;2.40;;
651;SDS011;310;48.490;9.200;2023-06-22T12:37:51;86.40;;;2.37;;
651;SDS011;310;48.490;9.200;2023-06-22T12:40:17;86.97;;;2.70;;
651;SDS011;310;48.490;9.200;2023-06-22T12:42:44;85.77;;;2.17;;
651;SDS011;310;48.490;9.200;2023-06-22T12:45:10;87.37;;;2.70;;
651;SDS011;310;48.490;9.200;2023-06-22T12:47:36;86.57;;;2.40;;
651;SDS011;310;48.490;9.200;2023-06-22T12:50:01;86.70;;;2.43;;
651;SDS011;310;48.490;9.200;2023-06-22T12:52:29;86.70;;;2.70;;
651;SDS011;310;48.490;9.200;2023-06-22T12:54:56;89.07;;;3.07;;
651;SDS011;310;48.490;9.200;2023-06-22T12:57:22;88.70;;;2.57;;
651;SDS011;310;48.490;9.200;2023-06-22T12:59:48;86.27;;;2.40;;
651;SDS011;310;48.490;9.200;2023-06-22T13:02:14;87.20;;;2.43;;
651;SDS011;310;48.490;9.200;2023-06-22T13:04:39;86.50;;;2.57;;
651;SDS011;310;48.490;9.200;2023-06-22T13:07:05;87.07;;;2.83;;
651;SDS011;310;48.490;9.200;2023-06-22T13:09:30;87.17;;;2.40;;
651;SDS011;310;48.490;9.200;2023-06-22T13:11:56;86.93;;;2.50;;
651;SDS011;310;48.490;9.200;2023-06-22T13:14:22;87.70;;;2.50;;
651;SDS011;310;48.490;9.200;2023-06-22T13:16:47;86.43;;;2.43;;
651;SDS011;310;48.490;9.200;2023-06-22T13:19:14;86.10;;;2.10;;
651;SDS011;310;48.490;9.200;2023-06-22T13:21:40;86.37;;;2.37;;
651;SDS011;310;48.490;9.200;2023-06-22T13:24:06;86.30;;;2.33;;
651;SDS011;310;48.490;9.200;2023-06-22T13:26:31;85.70;;;2.20;;
651;SDS011;310;48.490;9.200;2023-06-22T13:28:57;86.37;;;2.40;;
651;SDS011;310;48.490;9.200;2023-06-22T13:31:23;85.77;;;2.40;;
651;SDS011;310;48.490;9.200;2023-06-22T13:33:48;86.90;;;2.50;;
651;SDS011;310;48.490;9.200;2023-06-22T13:36:17;88.47;;;2.47;;
651;SDS011;310;48.490;9.200;2023-06-22T13:38:43;88.50;;;2.87;;
651;SDS011;310;48.490;9.200;2023-06-22T13:41:08;86.23;;;2.33;;
651;SDS011;310;48.490;9.200;2023-06-22T13:43:34;98.83;;;4.03;;
651;SDS011;310;48.490;9.200;2023-06-22T13:45:59;87.40;;;2.57;;
651;SDS011;310;48.490;9.200;2023-06-22T13:48:25;85.57;;;2.00;;
651;SDS011;310;48.490;9.200;2023-06-22T13:50:51;86.20;;;2.37;;
651;SDS011;310;48.490;9.200;2023-06-22T13:53:17;86.17;;;2.50;;
651;SDS011;310;48.490;9.200;2023-06-22T13:55:42;86.07;;;2.50;;
651;SDS011;310;48.490;9.200;2023-06-22T13:58:08;85.97;;;2.40;;
651;SDS011;310;48.490;9.200;2023-06-22T14:00:33;86.53;;;2.67;;
651;SDS011;310;48.490;9.200;2023-06-22T14:02:59;86.90;;;3.20;;
651;SDS011;310;48.490;9.200;2023-06-22T14:05:25;87.50;;;2.80;;
651;SDS011;310;48.490;9.200;2023-06-22T14:07:50;85.97;;;2.50;;
651;SDS011;310;48.490;9.200;2023-06-22T14:10:17;85.60;;;2.30;;
651;SDS011;310;48.490;9.200;2023-06-22T14:12:42;85.17;;;2.07;;
651;SDS011;310;48.490;9.200;2023-06-22T14:15:08;86.80;;;2.43;;
651;SDS011;310;48.490;9.200;2023-06-22T14:17:34;85.53;;;2.40;;
651;SDS011;310;48.490;9.200;2023-06-22T14:19:59;86.00;;;2.50;;
651;SDS011;310;48.490;9.200;2023-06-22T14:22:25;85.73;;;2.43;;
651;SDS011;310;48.490;9.200;2023-06-22T14:24:54;88.80;;;2.57;;
651;SDS011;310;48.490;9.200;2023-06-22T14:27:20;86.37;;;2.60;;
651;SDS011;310;48.490;9.200;2023-06-22T14:29:46;86.30;;;2.33;;
651;SDS011;310;48.490;9.200;2023-06-22T14:32:12;86.33;;;2.13;;
651;SDS011;310;48.490;9.200;2023-06-22T14:34:37;85.30;;;2.20;;
651;SDS011;310;48.490;9.200;2023-06-22T14:37:05;85.97;;;2.10;;
651;SDS011;310;48.490;9.200;2023-06-22T14:39:32;85.67;;;2.20;;
651;SDS011;310;48.490;9.200;2023-06-22T14:41:58;85.10;;;2.10;;
651;SDS011;310;48.490;9.200;2023-06-22T14:44:25;86.80;;;2.80;;
651;SDS011;310;48.490;9.200;2023-06-22T14:46:51;85.70;;;2.30;;
651;SDS011;310;48.490;9.200;2023-06-22T14:49:16;86.47;;;2.40;;
651;SDS011;310;48.490;9.200;2023-06-22T14:51:42;85.67;;;2.33;;
651;SDS011;310;48.490;9.200;2023-06-22T14:54:07;85.73;;;2.27;;
651;SDS011;310;48.490;9.200;2023-06-22T14:56:33;91.17;;;3.17;;
651;SDS011;310;48.490;9.200;2023-06-22T14:58:59;87.37;;;2.40;;
651;SDS011;310;48.490;9.200;2023-06-22T15:01:25;85.50;;;2.20;;
651;SDS011;310;48.490;9.200;2023-06-22T15:03:50;85.60;;;2.23;;
651;SDS011;310;48.490;9.200;2023-06-22T15:06:16;91.27;;;2.33;;
651;SDS011;310;48.490;9.200;2023-06-22T15:08:41;86.07;;;2.30;;
651;SDS011;310;48.490;9.200;2023-06-22T15:11:07;85.63;;;2.50;;
651;SDS011;310;48.490;9.200;2023-06-22T15:13:33;85.13;;;2.00;;
651;SDS011;310;48.490;9.200;2023-06-22T15:15:59;85.63;;;2.30;;
651;SDS011;310;48.490;9.200;2023-06-22T15:18:28;86.87;;;2.43;;
651;SDS011;310;48.490;9.200;2023-06-22T15:20:54;85.37;;;2.10;;
651;SDS011;310;48.490;9.200;2023-06-22T15:23:20;85.37;;;2.30;;
651;SDS011;310;48.490;9.200;2023-06-22T15:25:45;85.07;;;2.23;;
651;SDS011;310;48.490;9.200;2023-06-22T15:28:11;87.70;;;2.20;;
651;SDS011;310;48.490;9.200;2023-06-22T15:30:37;84.77;;;2.20;;